Astroworld, Texas
Current Conditions -  °F | °C
As of 4:55 AM on Wednesday 26 Nov 2014 (Local Time) from KMCJ Reporting Station
Clear Clear  
Wind Chill: 54°   Ceiling: Unl
Heat Index: 54°   Visibility: 10mi
Dew Point: 39°   Wind: 14mph
Humidity: 58%   Direction: 200°SSW
Pressure: 30.16"   Gusts: 26mph
Location:  29.6867°N, 95.4345°W
Report Text: KMCJ 261055Z AUTO 20012G23KT 020V030 10SM CLR 12/04 A3016 RMK AO1
Loading
Personal Weather Stations






























Interactive Weather Map New forecast layout! Learn more

10-Day Weather Forecast

Advertisements
Track Severe Weather on mobile